sensor_id;sensor_type;location;lat;lon;timestamp;pressure;altitude;pressure_sealevel;temperature;humidity
46710;BME280;32442;51.514;-0.178;2023-01-29T00:02:23;102811.28;;;21.34;35.79
46710;BME280;32442;51.514;-0.178;2023-01-29T00:04:50;102813.56;;;21.37;35.44
46710;BME280;32442;51.514;-0.178;2023-01-29T00:07:18;102812.19;;;21.39;35.51
46710;BME280;32442;51.514;-0.178;2023-01-29T00:09:45;102818.38;;;21.41;35.29
46710;BME280;32442;51.514;-0.178;2023-01-29T00:12:12;102820.06;;;21.42;35.48
46710;BME280;32442;51.514;-0.178;2023-01-29T00:14:39;102819.81;;;21.44;35.36
46710;BME280;32442;51.514;-0.178;2023-01-29T00:17:06;102810.81;;;21.47;35.16
46710;BME280;32442;51.514;-0.178;2023-01-29T00:19:34;102818.41;;;21.46;35.25
46710;BME280;32442;51.514;-0.178;2023-01-29T00:22:01;102803.50;;;21.46;35.03
46710;BME280;32442;51.514;-0.178;2023-01-29T00:24:28;102819.25;;;21.47;34.99
46710;BME280;32442;51.514;-0.178;2023-01-29T00:26:55;102809.44;;;21.49;35.02
46710;BME280;32442;51.514;-0.178;2023-01-29T00:29:21;102804.66;;;21.50;34.81
46710;BME280;32442;51.514;-0.178;2023-01-29T00:31:48;102811.13;;;21.50;34.93
46710;BME280;32442;51.514;-0.178;2023-01-29T00:34:16;102809.97;;;21.46;34.73
46710;BME280;32442;51.514;-0.178;2023-01-29T00:36:43;102799.84;;;21.45;34.43
46710;BME280;32442;51.514;-0.178;2023-01-29T00:39:11;102802.34;;;21.42;34.97
46710;BME280;32442;51.514;-0.178;2023-01-29T00:41:37;102809.13;;;21.46;35.46
46710;BME280;32442;51.514;-0.178;2023-01-29T00:44:15;102799.00;;;21.45;34.85
46710;BME280;32442;51.514;-0.178;2023-01-29T00:46:52;102804.91;;;21.43;35.01
46710;BME280;32442;51.514;-0.178;2023-01-29T00:49:20;102810.81;;;21.47;35.04
46710;BME280;32442;51.514;-0.178;2023-01-29T00:51:47;102814.75;;;21.46;35.20
46710;BME280;32442;51.514;-0.178;2023-01-29T00:54:33;102816.72;;;21.45;35.18
46710;BME280;32442;51.514;-0.178;2023-01-29T00:57:01;102802.94;;;21.44;35.63
46710;BME280;32442;51.514;-0.178;2023-01-29T00:59:28;102802.94;;;21.44;35.31
46710;BME280;32442;51.514;-0.178;2023-01-29T01:01:54;102805.41;;;21.40;35.63
46710;BME280;32442;51.514;-0.178;2023-01-29T01:04:31;102809.09;;;21.41;35.54
46710;BME280;32442;51.514;-0.178;2023-01-29T01:07:00;102801.19;;;21.38;35.79
46710;BME280;32442;51.514;-0.178;2023-01-29T01:09:27;102800.88;;;21.34;36.20
46710;BME280;32442;51.514;-0.178;2023-01-29T01:12:03;102790.50;;;21.35;36.17
46710;BME280;32442;51.514;-0.178;2023-01-29T01:14:30;102793.25;;;21.29;36.28
46710;BME280;32442;51.514;-0.178;2023-01-29T01:17:01;102779.72;;;21.26;36.65
46710;BME280;32442;51.514;-0.178;2023-01-29T01:19:27;102784.78;;;21.24;36.53
46710;BME280;32442;51.514;-0.178;2023-01-29T01:21:54;102788.41;;;21.20;37.00
46710;BME280;32442;51.514;-0.178;2023-01-29T01:24:21;102783.03;;;21.18;36.71
46710;BME280;32442;51.514;-0.178;2023-01-29T01:26:49;102774.84;;;21.17;36.76
46710;BME280;32442;51.514;-0.178;2023-01-29T01:29:15;102775.91;;;21.11;36.81
46710;BME280;32442;51.514;-0.178;2023-01-29T01:31:42;102780.69;;;21.10;37.07
46710;BME280;32442;51.514;-0.178;2023-01-29T01:34:09;102767.50;;;21.11;37.17
46710;BME280;32442;51.514;-0.178;2023-01-29T01:36:36;102771.94;;;21.07;37.39
46710;BME280;32442;51.514;-0.178;2023-01-29T01:39:02;102764.63;;;21.06;37.41
46710;BME280;32442;51.514;-0.178;2023-01-29T01:41:29;102763.47;;;21.02;37.12
46710;BME280;32442;51.514;-0.178;2023-01-29T01:46:24;102774.66;;;20.97;37.61
46710;BME280;32442;51.514;-0.178;2023-01-29T01:48:53;102773.22;;;20.94;37.75
46710;BME280;32442;51.514;-0.178;2023-01-29T01:51:22;102774.31;;;20.88;37.52
46710;BME280;32442;51.514;-0.178;2023-01-29T01:53:52;102779.06;;;20.88;37.71
46710;BME280;32442;51.514;-0.178;2023-01-29T01:56:22;102775.97;;;20.84;37.62
46710;BME280;32442;51.514;-0.178;2023-01-29T01:58:51;102778.97;;;20.77;37.63
46710;BME280;32442;51.514;-0.178;2023-01-29T02:01:20;102782.63;;;20.78;37.52
46710;BME280;32442;51.514;-0.178;2023-01-29T02:04:00;102792.44;;;20.75;37.99
46710;BME280;32442;51.514;-0.178;2023-01-29T02:06:38;102787.88;;;20.69;38.08
46710;BME280;32442;51.514;-0.178;2023-01-29T02:09:19;102784.53;;;20.72;37.62
46710;BME280;32442;51.514;-0.178;2023-01-29T02:11:57;102785.88;;;20.65;37.78
46710;BME280;32442;51.514;-0.178;2023-01-29T02:14:24;102780.56;;;20.68;38.14
46710;BME280;32442;51.514;-0.178;2023-01-29T02:16:51;102777.69;;;20.63;38.28
46710;BME280;32442;51.514;-0.178;2023-01-29T02:19:22;102770.06;;;20.59;38.06
46710;BME280;32442;51.514;-0.178;2023-01-29T02:27:02;102764.13;;;20.55;38.48
46710;BME280;32442;51.514;-0.178;2023-01-29T02:37:24;102764.00;;;20.45;38.78
46710;BME280;32442;51.514;-0.178;2023-01-29T02:39:56;102774.06;;;20.41;38.58
46710;BME280;32442;51.514;-0.178;2023-01-29T02:42:32;102781.09;;;20.38;38.45
46710;BME280;32442;51.514;-0.178;2023-01-29T02:45:03;102779.97;;;20.39;38.81
46710;BME280;32442;51.514;-0.178;2023-01-29T02:47:33;102783.88;;;20.38;38.57
46710;BME280;32442;51.514;-0.178;2023-01-29T02:50:05;102790.28;;;20.34;38.53
46710;BME280;32442;51.514;-0.178;2023-01-29T02:52:37;102780.75;;;20.35;38.81
46710;BME280;32442;51.514;-0.178;2023-01-29T02:55:11;102788.59;;;20.33;39.10
46710;BME280;32442;51.514;-0.178;2023-01-29T02:57:39;102782.63;;;20.29;38.96
46710;BME280;32442;51.514;-0.178;2023-01-29T03:02:38;102778.91;;;20.24;39.21
46710;BME280;32442;51.514;-0.178;2023-01-29T03:05:10;102774.66;;;20.21;39.28
46710;BME280;32442;51.514;-0.178;2023-01-29T03:07:39;102771.34;;;20.24;39.38
46710;BME280;32442;51.514;-0.178;2023-01-29T03:12:50;102770.41;;;20.19;39.44
46710;BME280;32442;51.514;-0.178;2023-01-29T03:15:22;102767.53;;;20.14;39.57
46710;BME280;32442;51.514;-0.178;2023-01-29T03:18:01;102763.03;;;20.13;39.27
46710;BME280;32442;51.514;-0.178;2023-01-29T03:20:32;102756.31;;;20.14;39.54
46710;BME280;32442;51.514;-0.178;2023-01-29T03:23:03;102743.13;;;20.14;39.61
46710;BME280;32442;51.514;-0.178;2023-01-29T03:25:32;102743.91;;;20.10;39.67
46710;BME280;32442;51.514;-0.178;2023-01-29T03:28:11;102732.38;;;20.06;39.74
46710;BME280;32442;51.514;-0.178;2023-01-29T03:30:51;102739.69;;;20.07;39.51
46710;BME280;32442;51.514;-0.178;2023-01-29T03:33:30;102727.81;;;20.00;39.72
46710;BME280;32442;51.514;-0.178;2023-01-29T03:35:59;102723.91;;;20.01;39.58
46710;BME280;32442;51.514;-0.178;2023-01-29T03:38:27;102725.28;;;19.98;39.96
46710;BME280;32442;51.514;-0.178;2023-01-29T03:46:02;102723.56;;;19.97;39.93
46710;BME280;32442;51.514;-0.178;2023-01-29T03:48:33;102717.66;;;19.94;40.18
46710;BME280;32442;51.514;-0.178;2023-01-29T03:51:09;102720.69;;;19.92;39.93
46710;BME280;32442;51.514;-0.178;2023-01-29T03:56:18;102724.28;;;19.88;39.72
46710;BME280;32442;51.514;-0.178;2023-01-29T04:01:14;102722.28;;;19.83;40.22
46710;BME280;32442;51.514;-0.178;2023-01-29T04:03:47;102713.59;;;19.85;39.86
46710;BME280;32442;51.514;-0.178;2023-01-29T04:06:18;102719.38;;;19.78;40.08
46710;BME280;32442;51.514;-0.178;2023-01-29T04:08:47;102713.78;;;19.78;40.04
46710;BME280;32442;51.514;-0.178;2023-01-29T04:11:18;102718.84;;;19.81;40.23
46710;BME280;32442;51.514;-0.178;2023-01-29T04:13:46;102709.56;;;19.76;40.04
46710;BME280;32442;51.514;-0.178;2023-01-29T04:16:15;102712.94;;;19.78;40.00
46710;BME280;32442;51.514;-0.178;2023-01-29T04:18:44;102705.38;;;19.78;40.43
46710;BME280;32442;51.514;-0.178;2023-01-29T04:21:11;102705.91;;;19.75;40.41
46710;BME280;32442;51.514;-0.178;2023-01-29T04:23:38;102699.69;;;19.73;40.21
46710;BME280;32442;51.514;-0.178;2023-01-29T04:28:45;102716.19;;;19.70;40.67
46710;BME280;32442;51.514;-0.178;2023-01-29T04:31:16;102707.19;;;19.68;40.64
46710;BME280;32442;51.514;-0.178;2023-01-29T04:33:47;102705.22;;;19.68;40.41
46710;BME280;32442;51.514;-0.178;2023-01-29T04:36:24;102707.19;;;19.68;40.35
46710;BME280;32442;51.514;-0.178;2023-01-29T04:39:01;102704.66;;;19.66;40.08
46710;BME280;32442;51.514;-0.178;2023-01-29T04:41:34;102701.50;;;19.63;39.95
46710;BME280;32442;51.514;-0.178;2023-01-29T04:49:12;102696.94;;;19.57;40.49
46710;BME280;32442;51.514;-0.178;2023-01-29T04:54:10;102691.25;;;19.51;40.16
46710;BME280;32442;51.514;-0.178;2023-01-29T04:59:18;102685.91;;;19.50;40.47
46710;BME280;32442;51.514;-0.178;2023-01-29T05:01:46;102679.44;;;19.49;40.59
46710;BME280;32442;51.514;-0.178;2023-01-29T05:04:15;102677.19;;;19.46;40.25
46710;BME280;32442;51.514;-0.178;2023-01-29T05:06:43;102670.47;;;19.47;40.49
46710;BME280;32442;51.514;-0.178;2023-01-29T05:09:12;102658.97;;;19.49;40.63
46710;BME280;32442;51.514;-0.178;2023-01-29T05:11:40;102662.91;;;19.48;40.61
46710;BME280;32442;51.514;-0.178;2023-01-29T05:14:07;102666.50;;;19.43;40.78
46710;BME280;32442;51.514;-0.178;2023-01-29T05:16:38;102670.16;;;19.44;40.50
46710;BME280;32442;51.514;-0.178;2023-01-29T05:19:10;102659.16;;;19.42;40.64
46710;BME280;32442;51.514;-0.178;2023-01-29T05:21:40;102659.41;;;19.41;40.43
46710;BME280;32442;51.514;-0.178;2023-01-29T05:24:08;102657.44;;;19.41;40.37
46710;BME280;32442;51.514;-0.178;2023-01-29T05:26:36;102649.28;;;19.40;40.32
46710;BME280;32442;51.514;-0.178;2023-01-29T05:29:12;102646.16;;;19.36;40.69
46710;BME280;32442;51.514;-0.178;2023-01-29T05:31:42;102645.06;;;19.37;40.58
46710;BME280;32442;51.514;-0.178;2023-01-29T05:34:10;102648.63;;;19.33;40.77
46710;BME280;32442;51.514;-0.178;2023-01-29T05:36:37;102653.16;;;19.34;40.43
46710;BME280;32442;51.514;-0.178;2023-01-29T05:39:03;102639.63;;;19.31;40.53
46710;BME280;32442;51.514;-0.178;2023-01-29T05:41:30;102631.22;;;19.31;40.29
46710;BME280;32442;51.514;-0.178;2023-01-29T05:43:57;102641.34;;;19.32;40.41
46710;BME280;32442;51.514;-0.178;2023-01-29T05:46:24;102631.75;;;19.28;40.57
46710;BME280;32442;51.514;-0.178;2023-01-29T05:48:51;102626.16;;;19.28;40.55
46710;BME280;32442;51.514;-0.178;2023-01-29T05:51:20;102621.31;;;19.23;40.67
46710;BME280;32442;51.514;-0.178;2023-01-29T05:53:47;102619.63;;;19.22;40.69
46710;BME280;32442;51.514;-0.178;2023-01-29T05:56:14;102620.47;;;19.23;40.81
46710;BME280;32442;51.514;-0.178;2023-01-29T05:58:41;102623.81;;;19.20;40.85
46710;BME280;32442;51.514;-0.178;2023-01-29T06:03:36;102622.16;;;19.24;40.31
46710;BME280;32442;51.514;-0.178;2023-01-29T06:06:02;102617.94;;;19.21;40.50
46710;BME280;32442;51.514;-0.178;2023-01-29T06:08:29;102612.59;;;19.20;40.51
46710;BME280;32442;51.514;-0.178;2023-01-29T06:10:56;102606.06;;;19.14;40.52
46710;BME280;32442;51.514;-0.178;2023-01-29T06:13:23;102605.81;;;19.16;40.41
46710;BME280;32442;51.514;-0.178;2023-01-29T06:15:50;102605.81;;;19.16;40.46
46710;BME280;32442;51.514;-0.178;2023-01-29T06:18:17;102618.13;;;19.15;40.47
46710;BME280;32442;51.514;-0.178;2023-01-29T06:20:44;102612.44;;;19.09;40.86
46710;BME280;32442;51.514;-0.178;2023-01-29T06:23:10;102604.88;;;19.10;40.43
46710;BME280;32442;51.514;-0.178;2023-01-29T06:25:37;102609.97;;;19.13;40.41
46710;BME280;32442;51.514;-0.178;2023-01-29T06:28:04;102610.72;;;19.08;40.70
46710;BME280;32442;51.514;-0.178;2023-01-29T06:30:30;102611.88;;;19.07;40.71
46710;BME280;32442;51.514;-0.178;2023-01-29T06:32:57;102617.47;;;19.07;40.63
46710;BME280;32442;51.514;-0.178;2023-01-29T06:35:24;102610.41;;;19.05;40.48
46710;BME280;32442;51.514;-0.178;2023-01-29T06:37:51;102612.34;;;19.04;40.54
46710;BME280;32442;51.514;-0.178;2023-01-29T06:40:18;102612.34;;;19.04;40.81
46710;BME280;32442;51.514;-0.178;2023-01-29T06:42:45;102614.59;;;19.02;40.54
46710;BME280;32442;51.514;-0.178;2023-01-29T06:45:12;102614.31;;;19.04;40.59
46710;BME280;32442;51.514;-0.178;2023-01-29T06:47:39;102611.19;;;19.00;40.63
46710;BME280;32442;51.514;-0.178;2023-01-29T06:50:06;102611.78;;;19.02;40.74
46710;BME280;32442;51.514;-0.178;2023-01-29T06:52:33;102606.34;;;18.96;40.72
46710;BME280;32442;51.514;-0.178;2023-01-29T06:55:00;102608.06;;;18.97;40.92
46710;BME280;32442;51.514;-0.178;2023-01-29T06:57:28;102596.59;;;18.98;41.18
46710;BME280;32442;51.514;-0.178;2023-01-29T06:59:55;102597.78;;;19.02;40.97
46710;BME280;32442;51.514;-0.178;2023-01-29T07:02:22;102593.59;;;19.05;41.19
46710;BME280;32442;51.514;-0.178;2023-01-29T07:04:49;102600.69;;;19.13;41.18
46710;BME280;32442;51.514;-0.178;2023-01-29T07:07:15;102590.41;;;19.18;41.32
46710;BME280;32442;51.514;-0.178;2023-01-29T07:09:42;102591.88;;;19.21;41.40
46710;BME280;32442;51.514;-0.178;2023-01-29T07:12:10;102585.50;;;19.25;41.01
46710;BME280;32442;51.514;-0.178;2023-01-29T07:14:37;102586.66;;;19.29;41.37
46710;BME280;32442;51.514;-0.178;2023-01-29T07:17:03;102587.84;;;19.33;41.09
46710;BME280;32442;51.514;-0.178;2023-01-29T07:19:30;102593.50;;;19.38;41.21
46710;BME280;32442;51.514;-0.178;2023-01-29T07:21:57;102592.72;;;19.43;41.44
46710;BME280;32442;51.514;-0.178;2023-01-29T07:24:27;102587.22;;;19.48;40.99
46710;BME280;32442;51.514;-0.178;2023-01-29T07:26:54;102586.44;;;19.52;41.18
46710;BME280;32442;51.514;-0.178;2023-01-29T07:29:21;102585.66;;;19.57;40.86
46710;BME280;32442;51.514;-0.178;2023-01-29T07:31:48;102580.09;;;19.62;40.94
46710;BME280;32442;51.514;-0.178;2023-01-29T07:34:15;102573.72;;;19.67;40.71
46710;BME280;32442;51.514;-0.178;2023-01-29T07:36:41;102578.53;;;19.71;40.58
46710;BME280;32442;51.514;-0.178;2023-01-29T07:39:08;102581.38;;;19.76;40.69
46710;BME280;32442;51.514;-0.178;2023-01-29T07:41:35;102580.56;;;19.81;40.80
46710;BME280;32442;51.514;-0.178;2023-01-29T07:44:01;102580.63;;;19.86;40.78
46710;BME280;32442;51.514;-0.178;2023-01-29T07:46:28;102578.72;;;19.91;40.51
46710;BME280;32442;51.514;-0.178;2023-01-29T07:48:55;102578.78;;;19.96;40.42
46710;BME280;32442;51.514;-0.178;2023-01-29T07:51:23;102574.09;;;20.02;40.35
46710;BME280;32442;51.514;-0.178;2023-01-29T07:53:50;102569.63;;;20.06;40.27
46710;BME280;32442;51.514;-0.178;2023-01-29T07:56:16;102569.41;;;20.13;40.40
46710;BME280;32442;51.514;-0.178;2023-01-29T07:58:43;102571.41;;;20.17;40.32
46710;BME280;32442;51.514;-0.178;2023-01-29T08:01:10;102574.25;;;20.22;39.75
46710;BME280;32442;51.514;-0.178;2023-01-29T08:03:37;102574.59;;;20.26;39.95
46710;BME280;32442;51.514;-0.178;2023-01-29T08:06:04;102580.00;;;20.32;39.95
46710;BME280;32442;51.514;-0.178;2023-01-29T08:08:31;102569.94;;;20.36;39.85
46710;BME280;32442;51.514;-0.178;2023-01-29T08:11:00;102569.97;;;20.41;39.73
46710;BME280;32442;51.514;-0.178;2023-01-29T08:13:26;102575.63;;;20.47;39.74
46710;BME280;32442;51.514;-0.178;2023-01-29T08:15:57;102574.84;;;20.51;39.75
46710;BME280;32442;51.514;-0.178;2023-01-29T08:18:24;102575.97;;;20.55;39.48
46710;BME280;32442;51.514;-0.178;2023-01-29T08:20:51;102577.97;;;20.60;39.52
46710;BME280;32442;51.514;-0.178;2023-01-29T08:23:18;102569.84;;;20.63;38.93
46710;BME280;32442;51.514;-0.178;2023-01-29T08:25:45;102576.63;;;20.67;39.07
46710;BME280;32442;51.514;-0.178;2023-01-29T08:28:12;102566.84;;;20.70;38.97
46710;BME280;32442;51.514;-0.178;2023-01-29T08:30:39;102569.94;;;20.73;38.96
46710;BME280;32442;51.514;-0.178;2023-01-29T08:33:06;102570.53;;;20.75;39.03
46710;BME280;32442;51.514;-0.178;2023-01-29T08:35:32;102561.56;;;20.78;38.58
46710;BME280;32442;51.514;-0.178;2023-01-29T08:37:59;102568.56;;;20.81;38.87
46710;BME280;32442;51.514;-0.178;2023-01-29T08:40:27;102569.16;;;20.83;38.38
46710;BME280;32442;51.514;-0.178;2023-01-29T08:42:57;102565.25;;;20.84;38.15
46710;BME280;32442;51.514;-0.178;2023-01-29T08:45:28;102564.94;;;20.85;38.63
46710;BME280;32442;51.514;-0.178;2023-01-29T08:47:55;102572.00;;;20.88;38.38
46710;BME280;32442;51.514;-0.178;2023-01-29T08:50:22;102571.16;;;20.88;38.07
46710;BME280;32442;51.514;-0.178;2023-01-29T08:52:49;102566.09;;;20.90;38.11
46710;BME280;32442;51.514;-0.178;2023-01-29T08:55:16;102571.72;;;20.90;38.24
46710;BME280;32442;51.514;-0.178;2023-01-29T08:57:44;102573.72;;;20.89;38.21
46710;BME280;32442;51.514;-0.178;2023-01-29T09:00:11;102567.25;;;20.89;38.09
46710;BME280;32442;51.514;-0.178;2023-01-29T09:02:38;102564.44;;;20.89;38.44
46710;BME280;32442;51.514;-0.178;2023-01-29T09:05:05;102557.13;;;20.88;38.11
46710;BME280;32442;51.514;-0.178;2023-01-29T09:07:32;102559.91;;;20.88;38.16
46710;BME280;32442;51.514;-0.178;2023-01-29T09:09:59;102555.41;;;20.86;38.60
46710;BME280;32442;51.514;-0.178;2023-01-29T09:12:26;102554.31;;;20.88;38.56
46710;BME280;32442;51.514;-0.178;2023-01-29T09:14:53;102554.56;;;20.86;38.23
46710;BME280;32442;51.514;-0.178;2023-01-29T09:17:20;102557.66;;;20.84;38.55
46710;BME280;32442;51.514;-0.178;2023-01-29T09:19:47;102552.31;;;20.83;38.62
46710;BME280;32442;51.514;-0.178;2023-01-29T09:22:14;102554.53;;;20.81;38.70
46710;BME280;32442;51.514;-0.178;2023-01-29T09:24:41;102551.16;;;20.79;39.09
46710;BME280;32442;51.514;-0.178;2023-01-29T09:27:07;102555.09;;;20.78;38.85
46710;BME280;32442;51.514;-0.178;2023-01-29T09:29:35;102558.16;;;20.76;38.96
46710;BME280;32442;51.514;-0.178;2023-01-29T09:32:03;102549.16;;;20.74;39.38
46710;BME280;32442;51.514;-0.178;2023-01-29T09:34:32;102559.56;;;20.74;39.53
46710;BME280;32442;51.514;-0.178;2023-01-29T09:36:58;102548.31;;;20.74;39.26
46710;BME280;32442;51.514;-0.178;2023-01-29T09:39:25;102550.28;;;20.73;39.38
46710;BME280;32442;51.514;-0.178;2023-01-29T09:44:46;102547.72;;;20.67;39.46
46710;BME280;32442;51.514;-0.178;2023-01-29T09:47:15;102548.53;;;20.62;39.25
46710;BME280;32442;51.514;-0.178;2023-01-29T09:49:45;102550.16;;;20.58;39.70
46710;BME280;32442;51.514;-0.178;2023-01-29T09:59:51;102550.09;;;20.48;39.54
46710;BME280;32442;51.514;-0.178;2023-01-29T10:04:49;102556.25;;;20.45;39.87
46710;BME280;32442;51.514;-0.178;2023-01-29T10:14:57;102545.22;;;20.33;40.06
46710;BME280;32442;51.514;-0.178;2023-01-29T10:25:00;102541.44;;;20.23;39.44
46710;BME280;32442;51.514;-0.178;2023-01-29T10:27:31;102534.97;;;20.22;39.84
46710;BME280;32442;51.514;-0.178;2023-01-29T10:29:59;102533.31;;;20.21;39.94
46710;BME280;32442;51.514;-0.178;2023-01-29T10:32:28;102537.72;;;20.17;40.08
46710;BME280;32442;51.514;-0.178;2023-01-29T10:34:59;102538.88;;;20.16;39.92
46710;BME280;32442;51.514;-0.178;2023-01-29T10:40:14;102527.53;;;20.06;39.09
46710;BME280;32442;51.514;-0.178;2023-01-29T10:42:45;102527.75;;;19.99;39.16
46710;BME280;32442;51.514;-0.178;2023-01-29T10:48:01;102522.38;;;19.93;38.76
46710;BME280;32442;51.514;-0.178;2023-01-29T11:01:01;102486.34;;;19.80;38.46
46710;BME280;32442;51.514;-0.178;2023-01-29T11:03:29;102482.09;;;19.77;38.51
46710;BME280;32442;51.514;-0.178;2023-01-29T11:06:00;102483.50;;;19.75;38.98
46710;BME280;32442;51.514;-0.178;2023-01-29T11:08:33;102486.50;;;19.68;38.63
46710;BME280;32442;51.514;-0.178;2023-01-29T11:11:08;102479.47;;;19.66;38.88
46710;BME280;32442;51.514;-0.178;2023-01-29T11:13:40;102471.31;;;19.64;39.01
46710;BME280;32442;51.514;-0.178;2023-01-29T11:16:08;102475.22;;;19.63;39.39
46710;BME280;32442;51.514;-0.178;2023-01-29T11:21:13;102470.66;;;19.52;39.54
46710;BME280;32442;51.514;-0.178;2023-01-29T11:23:42;102452.06;;;19.46;39.67
46710;BME280;32442;51.514;-0.178;2023-01-29T11:26:10;102450.38;;;19.45;39.31
46710;BME280;32442;51.514;-0.178;2023-01-29T11:33:45;102448.16;;;19.47;40.07
46710;BME280;32442;51.514;-0.178;2023-01-29T11:38:58;102431.25;;;19.15;38.98
46710;BME280;32442;51.514;-0.178;2023-01-29T11:41:31;102428.75;;;19.19;39.21
46710;BME280;32442;51.514;-0.178;2023-01-29T11:46:44;102418.78;;;19.28;39.30
46710;BME280;32442;51.514;-0.178;2023-01-29T11:49:19;102408.22;;;19.35;39.21
46710;BME280;32442;51.514;-0.178;2023-01-29T11:51:50;102403.47;;;19.40;39.47
46710;BME280;32442;51.514;-0.178;2023-01-29T11:54:18;102403.00;;;19.43;39.01
46710;BME280;32442;51.514;-0.178;2023-01-29T11:56:48;102392.66;;;19.49;39.34
46710;BME280;32442;51.514;-0.178;2023-01-29T12:01:54;102381.00;;;19.57;39.27
46710;BME280;32442;51.514;-0.178;2023-01-29T12:04:22;102383.25;;;19.60;39.04
46710;BME280;32442;51.514;-0.178;2023-01-29T12:06:51;102372.06;;;19.65;39.02
46710;BME280;32442;51.514;-0.178;2023-01-29T12:09:21;102365.91;;;19.68;38.90
46710;BME280;32442;51.514;-0.178;2023-01-29T12:11:50;102362.31;;;19.73;38.94
46710;BME280;32442;51.514;-0.178;2023-01-29T12:19:34;102352.88;;;19.84;38.98
46710;BME280;32442;51.514;-0.178;2023-01-29T12:22:09;102343.34;;;19.85;39.07
46710;BME280;32442;51.514;-0.178;2023-01-29T12:25:01;102344.22;;;19.90;38.76
46710;BME280;32442;51.514;-0.178;2023-01-29T12:30:03;102333.31;;;19.99;38.94
46710;BME280;32442;51.514;-0.178;2023-01-29T12:37:51;102321.63;;;20.07;38.83
46710;BME280;32442;51.514;-0.178;2023-01-29T12:40:20;102312.94;;;20.14;39.02
46710;BME280;32442;51.514;-0.178;2023-01-29T12:42:50;102304.25;;;20.15;38.70
46710;BME280;32442;51.514;-0.178;2023-01-29T12:45:22;102307.09;;;20.20;38.77
46710;BME280;32442;51.514;-0.178;2023-01-29T12:47:51;102292.50;;;20.23;38.86
46710;BME280;32442;51.514;-0.178;2023-01-29T12:58:01;102270.69;;;20.35;38.66
46710;BME280;32442;51.514;-0.178;2023-01-29T13:00:31;102261.72;;;20.38;38.40
46710;BME280;32442;51.514;-0.178;2023-01-29T13:03:05;102251.03;;;20.40;38.52
46710;BME280;32442;51.514;-0.178;2023-01-29T13:05:40;102245.16;;;20.42;38.52
46710;BME280;32442;51.514;-0.178;2023-01-29T13:08:13;102236.47;;;20.44;38.34
46710;BME280;32442;51.514;-0.178;2023-01-29T13:10:42;102227.75;;;20.45;38.48
46710;BME280;32442;51.514;-0.178;2023-01-29T13:13:13;102222.72;;;20.47;38.45
46710;BME280;32442;51.514;-0.178;2023-01-29T13:15:41;102221.31;;;20.50;38.39
46710;BME280;32442;51.514;-0.178;2023-01-29T13:18:20;102210.09;;;20.50;38.24
46710;BME280;32442;51.514;-0.178;2023-01-29T13:20:49;102207.00;;;20.51;38.36
46710;BME280;32442;51.514;-0.178;2023-01-29T13:23:19;102208.13;;;20.50;38.21
46710;BME280;32442;51.514;-0.178;2023-01-29T13:25:50;102202.50;;;20.50;38.23
46710;BME280;32442;51.514;-0.178;2023-01-29T13:28:19;102203.09;;;20.52;38.44
46710;BME280;32442;51.514;-0.178;2023-01-29T13:30:46;102204.78;;;20.53;38.20
46710;BME280;32442;51.514;-0.178;2023-01-29T13:33:33;102196.34;;;20.53;38.37
46710;BME280;32442;51.514;-0.178;2023-01-29T13:36:01;102184.28;;;20.53;38.66
46710;BME280;32442;51.514;-0.178;2023-01-29T13:38:29;102178.94;;;20.51;38.33
46710;BME280;32442;51.514;-0.178;2023-01-29T13:41:00;102180.63;;;20.52;38.29
46710;BME280;32442;51.514;-0.178;2023-01-29T13:43:27;102159.00;;;20.53;38.28
46710;BME280;32442;51.514;-0.178;2023-01-29T13:45:58;102164.31;;;20.54;39.12
46710;BME280;32442;51.514;-0.178;2023-01-29T13:48:32;102162.09;;;20.56;38.48
46710;BME280;32442;51.514;-0.178;2023-01-29T13:51:02;102162.38;;;20.55;38.73
46710;BME280;32442;51.514;-0.178;2023-01-29T13:53:37;102156.75;;;20.55;38.46
46710;BME280;32442;51.514;-0.178;2023-01-29T14:01:09;102161.50;;;20.49;38.75
46710;BME280;32442;51.514;-0.178;2023-01-29T14:03:44;102153.66;;;20.51;38.62
46710;BME280;32442;51.514;-0.178;2023-01-29T14:09:28;102149.44;;;20.54;38.45
46710;BME280;32442;51.514;-0.178;2023-01-29T14:11:52;102149.16;;;20.55;38.80
46710;BME280;32442;51.514;-0.178;2023-01-29T14:16:59;102141.34;;;20.62;38.85
46710;BME280;32442;51.514;-0.178;2023-01-29T14:19:27;102130.66;;;20.64;38.77
46710;BME280;32442;51.514;-0.178;2023-01-29T14:21:54;102135.69;;;20.67;38.43
46710;BME280;32442;51.514;-0.178;2023-01-29T14:24:23;102146.94;;;20.67;38.33
46710;BME280;32442;51.514;-0.178;2023-01-29T14:26:54;102137.13;;;20.70;38.25
46710;BME280;32442;51.514;-0.178;2023-01-29T14:29:25;102136.53;;;20.73;38.70
46710;BME280;32442;51.514;-0.178;2023-01-29T14:37:17;102139.34;;;20.83;38.14
46710;BME280;32442;51.514;-0.178;2023-01-29T14:39:47;102133.75;;;20.88;38.19
46710;BME280;32442;51.514;-0.178;2023-01-29T14:44:47;102116.03;;;20.98;38.02
46710;BME280;32442;51.514;-0.178;2023-01-29T14:49:55;102115.44;;;21.06;38.36
46710;BME280;32442;51.514;-0.178;2023-01-29T14:52:25;102115.72;;;21.09;38.16
46710;BME280;32442;51.514;-0.178;2023-01-29T14:54:57;102110.13;;;21.14;38.33
46710;BME280;32442;51.514;-0.178;2023-01-29T14:57:25;102112.34;;;21.17;38.16
46710;BME280;32442;51.514;-0.178;2023-01-29T14:59:53;102103.06;;;21.22;37.86
46710;BME280;32442;51.514;-0.178;2023-01-29T15:02:25;102093.25;;;21.24;38.04
46710;BME280;32442;51.514;-0.178;2023-01-29T15:04:59;102101.66;;;21.29;38.03
46710;BME280;32442;51.514;-0.178;2023-01-29T15:07:31;102101.94;;;21.33;37.73
46710;BME280;32442;51.514;-0.178;2023-01-29T15:20:29;102096.25;;;21.48;37.85
46710;BME280;32442;51.514;-0.178;2023-01-29T15:22:57;102087.50;;;21.50;37.70
46710;BME280;32442;51.514;-0.178;2023-01-29T15:25:24;102096.53;;;21.52;37.69
46710;BME280;32442;51.514;-0.178;2023-01-29T15:27:53;102101.84;;;21.53;37.50
46710;BME280;32442;51.514;-0.178;2023-01-29T15:30:24;102098.75;;;21.55;37.71